Time;durP1;ratioP1;P1;durP2;ratioP2;P2;SDS_P1;SDS_P2;PMS_P1;PMS_P2;Temp;Humidity;BMP_temperature;BMP_pressure;BME280_temperature;BME280_humidity;BME280_pressure;Samples;Min_cycle;Max_cycle;Signal;HPM_P1;HPM_P2
2023/05/19 00:01:42;;;;;;;2.50;1.30;;;8.70;99.90;;;;;;4978332;28;20080;-73
2023/05/19 00:04:11;;;;;;;5.68;1.70;;;8.70;99.90;;;;;;5012229;28;20041;-73
2023/05/19 00:06:37;;;;;;;4.97;1.73;;;8.60;99.90;;;;;;4977822;28;20096;-74
2023/05/19 00:09:08;;;;;;;4.55;1.60;;;8.70;99.90;;;;;;4994118;28;20120;-73
2023/05/19 00:11:35;;;;;;;7.35;2.10;;;8.60;99.90;;;;;;4993943;28;20037;-73
2023/05/19 00:14:02;;;;;;;5.88;1.83;;;8.60;99.90;;;;;;4994437;28;20104;-73
2023/05/19 00:16:29;;;;;;;1.88;1.33;;;8.70;99.90;;;;;;4994092;28;20052;-73
2023/05/19 00:18:59;;;;;;;2.45;1.17;;;8.60;99.90;;;;;;4994118;28;20053;-74
2023/05/19 00:21:26;;;;;;;3.92;1.70;;;8.60;99.90;;;;;;4977900;28;20370;-73
2023/05/19 00:23:52;;;;;;;;;;;8.70;99.90;;;;;;5011965;28;20108;-73
2023/05/19 00:26:18;;;;;;;4.28;1.50;;;8.60;99.90;;;;;;5026850;28;20360;-73
2023/05/19 00:28:43;;;;;;;4.55;1.67;;;8.60;99.90;;;;;;4993751;28;20132;-73
2023/05/19 00:31:09;;;;;;;4.00;1.40;;;8.60;99.90;;;;;;4993746;28;20045;-73
2023/05/19 00:33:35;;;;;;;3.25;1.20;;;8.70;99.90;;;;;;4961603;28;20516;-73
2023/05/19 00:36:02;;;;;;;4.40;1.52;;;8.70;99.90;;;;;;4993295;28;20050;-73
2023/05/19 00:38:30;;;;;;;4.45;1.23;;;8.70;99.90;;;;;;4976632;28;20366;-73
2023/05/19 00:40:55;;;;;;;2.72;1.10;;;8.70;99.90;;;;;;5010162;28;20431;-73
2023/05/19 00:43:21;;;;;;;3.05;1.10;;;8.60;99.90;;;;;;5009741;28;20042;-73
2023/05/19 00:45:47;;;;;;;3.55;1.30;;;8.60;99.90;;;;;;4993224;28;20420;-73
2023/05/19 00:48:13;;;;;;;2.78;1.20;;;8.60;99.90;;;;;;4976987;28;20054;-73
2023/05/19 00:50:39;;;;;;;2.78;1.00;;;8.50;99.90;;;;;;4993267;28;20128;-73
2023/05/19 00:53:05;;;;;;;4.68;1.30;;;8.60;99.90;;;;;;4993294;28;20038;-73
2023/05/19 00:55:34;;;;;;;3.97;1.80;;;8.60;99.90;;;;;;4993356;28;20044;-73
2023/05/19 00:58:00;;;;;;;2.17;1.13;;;8.60;99.90;;;;;;4993260;28;20045;-73
2023/05/19 01:00:26;;;;;;;3.17;1.27;;;8.60;99.90;;;;;;5009654;28;20045;-73
2023/05/19 01:02:53;;;;;;;4.35;1.52;;;8.60;99.90;;;;;;4993369;28;20047;-73
2023/05/19 01:05:18;;;;;;;2.80;1.10;;;8.60;99.90;;;;;;4993277;28;20049;-73
2023/05/19 01:07:45;;;;;;;3.97;1.42;;;8.50;99.90;;;;;;5010832;28;20440;-73
2023/05/19 01:10:11;;;;;;;3.50;1.10;;;8.50;99.90;;;;;;4993392;28;20121;-73
2023/05/19 01:12:39;;;;;;;4.28;1.45;;;8.60;99.90;;;;;;4976922;28;20426;-73
2023/05/19 01:15:05;;;;;;;6.15;1.45;;;8.50;99.90;;;;;;4993201;28;20081;-73
2023/05/19 01:17:58;;;;;;;3.75;1.33;;;8.50;99.90;;;;;;4992923;28;20117;-73
2023/05/19 01:20:31;;;;;;;3.08;1.20;;;8.60;99.90;;;;;;5009471;28;20053;-73
2023/05/19 01:23:03;;;;;;;5.45;1.60;;;8.50;99.90;;;;;;4992909;28;20046;-73
2023/05/19 01:25:29;;;;;;;6.47;1.42;;;8.60;99.90;;;;;;4976757;28;20056;-73
2023/05/19 01:28:13;;;;;;;4.47;1.65;;;8.50;99.90;;;;;;4992109;28;20042;-73
2023/05/19 01:30:39;;;;;;;4.20;1.55;;;8.50;99.90;;;;;;4973018;28;20458;-73
2023/05/19 01:33:12;;;;;;;3.85;1.45;;;8.50;99.90;;;;;;4972325;28;20046;-73
2023/05/19 01:35:40;;;;;;;2.80;1.20;;;8.50;99.90;;;;;;4996862;28;20058;-73
2023/05/19 01:38:08;;;;;;;4.35;1.10;;;8.50;99.90;;;;;;4992448;28;20133;-73
2023/05/19 01:40:36;;;;;;;3.25;1.20;;;8.50;99.90;;;;;;5010703;28;20074;-73
2023/05/19 01:43:02;;;;;;;2.80;1.15;;;8.50;99.90;;;;;;4992848;28;20041;-73
2023/05/19 01:45:30;;;;;;;1.92;0.80;;;8.40;99.90;;;;;;4992766;28;20093;-73
2023/05/19 01:47:58;;;;;;;3.88;1.10;;;8.40;99.90;;;;;;4977458;28;20046;-73
2023/05/19 01:50:24;;;;;;;2.97;1.00;;;8.30;99.90;;;;;;4996741;28;20052;-73
2023/05/19 01:52:51;;;;;;;5.00;1.25;;;8.40;99.90;;;;;;4980767;28;20045;-73
2023/05/19 01:55:17;;;;;;;;;;;8.40;99.90;;;;;;4997325;28;20512;-73
2023/05/19 01:58:04;;;;;;;2.92;1.00;;;8.40;99.90;;;;;;5014352;28;19917;-73
2023/05/19 02:00:50;;;;;;;4.28;1.27;;;8.40;99.90;;;;;;4996663;28;20084;-73
2023/05/19 02:03:18;;;;;;;5.32;1.50;;;8.40;99.90;;;;;;4996636;28;20156;-73
2023/05/19 02:06:05;;;;;;;2.45;1.00;;;8.40;99.90;;;;;;4980202;28;20354;-74
2023/05/19 02:08:43;;;;;;;4.25;1.20;;;8.30;99.90;;;;;;4996281;28;20056;-73
2023/05/19 02:11:18;;;;;;;3.97;1.38;;;8.30;99.90;;;;;;5012649;28;20049;-73
2023/05/19 02:13:47;;;;;;;3.38;1.15;;;8.30;99.90;;;;;;4996379;28;20512;-73
2023/05/19 02:16:15;;;;;;;3.03;1.30;;;8.40;99.90;;;;;;4980518;28;20096;-74
2023/05/19 02:18:44;;;;;;;3.10;1.02;;;8.30;99.90;;;;;;4996399;28;20057;-73
2023/05/19 02:21:12;;;;;;;2.30;1.13;;;8.40;99.90;;;;;;4980381;28;20519;-73
2023/05/19 02:23:39;;;;;;;2.60;1.15;;;8.30;99.90;;;;;;4996270;28;20524;-73
2023/05/19 02:26:07;;;;;;;2.38;0.90;;;8.30;99.90;;;;;;4979858;28;20050;-73
2023/05/19 02:28:36;;;;;;;2.78;1.17;;;8.40;99.90;;;;;;4996342;28;20392;-73
2023/05/19 02:31:04;;;;;;;2.40;1.00;;;8.40;99.90;;;;;;4996357;28;20049;-73
2023/05/19 02:33:30;;;;;;;2.50;0.80;;;8.40;99.90;;;;;;4995975;28;20120;-73
2023/05/19 02:35:56;;;;;;;3.70;1.15;;;8.20;99.90;;;;;;4996067;28;20041;-73
2023/05/19 02:38:22;;;;;;;2.53;0.98;;;8.20;99.90;;;;;;4995692;28;20088;-73
2023/05/19 02:40:47;;;;;;;1.98;0.90;;;8.30;99.90;;;;;;5012166;28;20108;-73
2023/05/19 02:43:13;;;;;;;4.95;1.25;;;8.20;99.90;;;;;;5013558;28;20045;-73
2023/05/19 02:45:39;;;;;;;3.33;1.35;;;8.30;99.90;;;;;;4995845;28;20062;-73
2023/05/19 02:48:05;;;;;;;2.28;0.93;;;8.30;99.90;;;;;;4995640;28;20416;-73
2023/05/19 02:50:30;;;;;;;1.35;0.98;;;8.20;99.90;;;;;;4995873;28;20038;-73
2023/05/19 02:52:56;;;;;;;2.95;0.98;;;8.30;99.90;;;;;;4995819;28;20133;-73
2023/05/19 02:55:22;;;;;;;2.20;0.82;;;8.20;99.90;;;;;;4995824;28;20489;-73
2023/05/19 02:57:47;;;;;;;1.10;0.60;;;8.30;99.90;;;;;;5013822;28;20128;-73
2023/05/19 03:00:13;;;;;;;3.13;0.77;;;8.30;99.90;;;;;;4978773;28;20038;-73
2023/05/19 03:02:40;;;;;;;1.98;0.70;;;8.20;99.90;;;;;;4995503;28;20038;-73
2023/05/19 03:05:07;;;;;;;2.40;1.00;;;8.10;99.90;;;;;;4995739;28;20085;-73
2023/05/19 03:07:32;;;;;;;3.38;1.05;;;8.10;99.90;;;;;;4995374;28;20046;-73
2023/05/19 03:09:58;;;;;;;3.72;1.15;;;8.20;99.90;;;;;;4995414;28;20042;-73
2023/05/19 03:12:24;;;;;;;1.80;0.70;;;8.00;99.90;;;;;;4995072;28;20038;-73
2023/05/19 03:14:50;;;;;;;2.10;0.70;;;8.10;99.90;;;;;;4995485;28;20041;-73
2023/05/19 03:17:15;;;;;;;1.67;0.85;;;8.10;99.90;;;;;;4978938;28;20058;-73
2023/05/19 03:19:41;;;;;;;1.70;0.85;;;8.10;99.90;;;;;;4995166;28;20056;-74
2023/05/19 03:22:07;;;;;;;3.13;1.10;;;8.00;99.90;;;;;;4994821;28;20046;-73
2023/05/19 03:24:32;;;;;;;4.60;1.40;;;8.00;99.90;;;;;;4995212;28;20120;-73
2023/05/19 03:26:58;;;;;;;3.58;1.23;;;8.00;99.90;;;;;;5012685;28;20104;-73
2023/05/19 03:29:24;;;;;;;1.85;0.77;;;8.10;99.90;;;;;;4994885;28;20045;-73
2023/05/19 03:31:50;;;;;;;2.30;1.00;;;8.10;99.90;;;;;;4978526;28;20042;-73
2023/05/19 03:34:16;;;;;;;2.70;1.25;;;8.10;99.90;;;;;;4994636;28;20044;-73
2023/05/19 03:36:43;;;;;;;4.50;1.30;;;8.20;99.90;;;;;;4994498;28;20121;-73
2023/05/19 03:39:09;;;;;;;3.88;1.40;;;8.00;99.90;;;;;;4994562;28;20056;-73
2023/05/19 03:41:36;;;;;;;3.97;1.20;;;8.00;99.90;;;;;;5012162;28;20100;-73
2023/05/19 03:44:01;;;;;;;3.17;1.25;;;8.20;99.90;;;;;;4994329;28;20448;-73
2023/05/19 03:46:27;;;;;;;1.90;0.98;;;8.20;99.90;;;;;;4994593;28;20046;-73
2023/05/19 03:48:52;;;;;;;2.38;1.10;;;8.10;99.90;;;;;;4994767;28;20448;-73
2023/05/19 03:51:18;;;;;;;1.75;0.80;;;8.00;99.90;;;;;;5012184;28;20084;-73
2023/05/19 03:53:44;;;;;;;1.10;0.70;;;8.20;99.90;;;;;;4994832;28;20081;-73
2023/05/19 03:56:13;;;;;;;3.15;1.10;;;8.00;99.90;;;;;;4994320;28;20048;-74
2023/05/19 03:58:43;;;;;;;1.13;0.70;;;8.10;99.90;;;;;;4994387;28;20133;-73
2023/05/19 04:01:10;;;;;;;2.15;1.00;;;8.20;99.90;;;;;;4994344;28;20135;-74
2023/05/19 04:03:35;;;;;;;1.77;0.70;;;8.20;99.90;;;;;;4993906;28;20041;-73
2023/05/19 04:06:01;;;;;;;3.05;1.15;;;8.00;99.90;;;;;;4994068;28;20052;-73
2023/05/19 04:08:27;;;;;;;2.75;1.15;;;8.00;99.90;;;;;;4994148;28;20087;-73
2023/05/19 04:10:52;;;;;;;4.93;1.23;;;8.10;99.90;;;;;;4993896;28;20050;-74
2023/05/19 04:13:20;;;;;;;2.03;0.98;;;8.20;99.90;;;;;;4976907;28;20045;-73
2023/05/19 04:15:45;;;;;;;2.38;0.90;;;8.20;99.90;;;;;;5010267;28;20045;-73
2023/05/19 04:18:11;;;;;;;1.95;0.70;;;8.20;99.90;;;;;;4993837;28;20056;-73
2023/05/19 04:20:37;;;;;;;1.98;0.70;;;8.30;99.90;;;;;;4993946;28;20041;-73
2023/05/19 04:23:02;;;;;;;2.30;0.65;;;8.10;99.90;;;;;;4961402;28;20042;-73
2023/05/19 04:25:28;;;;;;;1.63;0.60;;;8.20;99.90;;;;;;5010009;28;20053;-73
2023/05/19 04:27:56;;;;;;;0.57;0.50;;;8.30;99.90;;;;;;4993640;28;20057;-73
2023/05/19 04:30:23;;;;;;;1.35;0.63;;;8.20;99.90;;;;;;4993748;28;20053;-73
2023/05/19 04:32:49;;;;;;;0.82;0.60;;;8.20;99.90;;;;;;4993660;28;20046;-73
2023/05/19 04:35:16;;;;;;;1.23;0.50;;;8.40;99.90;;;;;;4993418;28;20042;-73
2023/05/19 04:37:44;;;;;;;2.00;0.80;;;8.40;99.90;;;;;;4993371;28;20050;-73
2023/05/19 04:40:14;;;;;;;1.52;0.60;;;8.40;99.90;;;;;;4993900;28;20077;-74
2023/05/19 04:42:41;;;;;;;1.05;0.60;;;8.40;99.90;;;;;;4977500;28;20464;-73
2023/05/19 04:45:08;;;;;;;1.67;0.60;;;8.60;99.90;;;;;;4993249;28;20058;-74
2023/05/19 04:47:37;;;;;;;1.30;0.60;;;8.60;99.90;;;;;;4977031;28;20505;-73
2023/05/19 04:50:04;;;;;;;2.25;0.80;;;8.70;99.90;;;;;;4993627;28;20107;-73
2023/05/19 04:52:30;;;;;;;0.95;0.73;;;8.60;99.90;;;;;;4993671;28;20045;-74
2023/05/19 04:54:55;;;;;;;1.45;0.90;;;8.80;99.90;;;;;;4993555;28;20050;-74
2023/05/19 04:57:21;;;;;;;2.13;0.90;;;8.70;99.90;;;;;;4993228;28;20050;-74
2023/05/19 04:59:48;;;;;;;3.60;1.30;;;9.00;99.90;;;;;;4993507;28;20108;-74
2023/05/19 05:02:14;;;;;;;3.88;1.40;;;8.90;99.90;;;;;;4977350;28;20038;-73
2023/05/19 05:04:42;;;;;;;7.38;2.35;;;8.90;99.90;;;;;;4977274;28;20444;-74
2023/05/19 05:07:08;;;;;;;4.38;1.80;;;9.20;99.90;;;;;;4993001;28;20119;-74
2023/05/19 05:09:34;;;;;;;3.60;1.60;;;9.30;99.90;;;;;;4993196;28;20342;-74
2023/05/19 05:12:00;;;;;;;;;;;9.30;99.90;;;;;;4977319;28;20052;-74
2023/05/19 05:14:26;;;;;;;3.58;1.50;;;9.20;99.90;;;;;;4993143;28;19921;-74
2023/05/19 05:16:52;;;;;;;4.15;1.60;;;9.30;99.90;;;;;;4993082;28;20042;-74
2023/05/19 05:19:18;;;;;;;5.18;1.50;;;9.40;99.90;;;;;;5009389;28;20508;-74
2023/05/19 05:21:44;;;;;;;2.60;1.30;;;9.40;99.90;;;;;;4993264;28;20153;-73
2023/05/19 05:24:11;;;;;;;4.03;1.75;;;9.50;99.90;;;;;;4976580;28;20061;-73
2023/05/19 05:26:37;;;;;;;3.20;1.60;;;9.70;99.90;;;;;;4992659;28;20060;-73
2023/05/19 05:29:03;;;;;;;3.03;1.70;;;9.60;99.90;;;;;;4992889;28;20070;-73
2023/05/19 05:31:29;;;;;;;2.67;1.50;;;9.70;99.90;;;;;;4992812;28;20077;-73
2023/05/19 05:33:55;;;;;;;3.03;1.33;;;9.90;99.90;;;;;;4993251;28;20089;-74
2023/05/19 05:36:20;;;;;;;3.30;1.70;;;9.90;99.90;;;;;;4993086;28;20422;-74
2023/05/19 05:38:46;;;;;;;3.92;1.70;;;10.00;99.90;;;;;;4992759;28;20046;-74
2023/05/19 05:41:12;;;;;;;5.68;1.75;;;10.00;99.90;;;;;;5010541;28;20045;-74
2023/05/19 05:43:37;;;;;;;5.35;1.70;;;10.20;99.90;;;;;;5008949;28;20104;-74
2023/05/19 05:46:03;;;;;;;4.82;1.70;;;10.20;99.90;;;;;;4960187;28;20104;-74
2023/05/19 05:48:29;;;;;;;4.13;1.80;;;10.40;99.90;;;;;;4976503;28;20041;-73
2023/05/19 05:50:56;;;;;;;3.70;1.98;;;10.60;99.90;;;;;;4993040;28;20391;-73
2023/05/19 05:53:24;;;;;;;3.95;1.85;;;10.90;99.90;;;;;;4976397;28;20222;-73
2023/05/19 05:55:50;;;;;;;3.65;1.65;;;11.30;99.90;;;;;;4992900;28;20515;-73
2023/05/19 05:58:16;;;;;;;2.20;1.40;;;11.70;99.90;;;;;;4992543;28;20049;-74
2023/05/19 06:00:42;;;;;;;2.30;1.38;;;12.10;17.90;;;;;;5010259;28;20150;-74
2023/05/19 06:03:09;;;;;;;3.25;1.90;;;12.40;99.90;;;;;;5010131;28;20088;-74
2023/05/19 06:05:36;;;;;;;2.33;1.50;;;12.70;1.00;;;;;;4992642;28;20496;-74
2023/05/19 06:08:02;;;;;;;3.20;1.80;;;13.00;99.90;;;;;;5008776;28;20045;-73
2023/05/19 06:10:28;;;;;;;2.65;1.80;;;13.10;84.70;;;;;;4992548;28;20049;-73
2023/05/19 06:12:54;;;;;;;3.03;1.73;;;13.00;99.90;;;;;;4992306;28;20076;-73
2023/05/19 06:15:20;;;;;;;3.08;1.58;;;12.80;99.90;;;;;;4992325;28;20046;-73
2023/05/19 06:17:46;;;;;;;2.65;1.50;;;12.50;99.90;;;;;;4992272;28;20050;-73
2023/05/19 06:20:12;;;;;;;2.53;1.50;;;12.40;99.90;;;;;;4992674;28;20078;-73
2023/05/19 06:22:38;;;;;;;5.65;2.20;;;12.30;1.00;;;;;;4992668;28;20361;-74
2023/05/19 06:25:05;;;;;;;3.75;2.05;;;12.50;99.90;;;;;;4992485;28;20037;-73
2023/05/19 06:27:30;;;;;;;2.92;1.70;;;12.60;99.90;;;;;;5009994;28;20077;-73
2023/05/19 06:29:56;;;;;;;4.75;2.25;;;12.80;69.20;;;;;;4992528;28;20092;-73
2023/05/19 06:32:22;;;;;;;3.72;1.70;;;12.90;99.90;;;;;;5008515;28;20453;-73
2023/05/19 06:34:53;;;;;;;2.40;1.40;;;12.90;1.00;;;;;;4992441;28;20077;-73
2023/05/19 06:37:22;;;;;;;3.92;1.63;;;12.90;1.00;;;;;;4995650;28;20128;-73
2023/05/19 06:39:52;;;;;;;4.45;2.03;;;12.80;20.20;;;;;;4995656;28;20049;-73
2023/05/19 06:42:21;;;;;;;6.50;1.98;;;12.70;99.90;;;;;;5013674;28;20042;-74
2023/05/19 06:44:51;;;;;;;2.53;1.67;;;12.70;69.60;;;;;;4995617;28;20136;-74
2023/05/19 06:47:17;;;;;;;6.22;1.83;;;12.80;49.00;;;;;;4995623;28;20048;-73
2023/05/19 06:49:44;;;;;;;4.60;2.17;;;12.90;92.10;;;;;;5013404;28;20125;-73
2023/05/19 06:52:10;;;;;;;4.78;1.95;;;13.20;99.90;;;;;;4995661;28;20044;-74
2023/05/19 06:54:35;;;;;;;3.13;1.58;;;13.40;99.90;;;;;;5012071;28;20034;-72
2023/05/19 06:57:01;;;;;;;3.72;1.75;;;13.50;99.90;;;;;;4979246;28;20100;-73
2023/05/19 06:59:27;;;;;;;3.95;1.90;;;13.50;99.90;;;;;;4995372;28;20120;-73
2023/05/19 07:01:53;;;;;;;3.40;1.85;;;13.50;99.90;;;;;;4979329;28;20045;-73
2023/05/19 07:04:18;;;;;;;2.53;1.50;;;13.60;99.90;;;;;;4995351;28;20061;-73
2023/05/19 07:06:44;;;;;;;2.08;1.23;;;13.70;99.90;;;;;;5011788;28;20046;-74
2023/05/19 07:09:09;;;;;;;6.22;1.90;;;13.70;1.00;;;;;;4995602;28;20477;-73
2023/05/19 07:11:35;;;;;;;5.55;2.08;;;13.80;99.90;;;;;;4995371;28;20103;-73
2023/05/19 07:14:01;;;;;;;3.70;1.67;;;13.80;99.90;;;;;;4995199;28;20037;-73
2023/05/19 07:16:26;;;;;;;3.13;1.52;;;13.90;1.00;;;;;;4995221;28;20068;-73
2023/05/19 07:18:52;;;;;;;5.60;1.95;;;14.10;95.00;;;;;;4979119;28;20050;-73
2023/05/19 07:21:18;;;;;;;2.60;1.45;;;14.20;1.00;;;;;;4978845;28;20129;-73
2023/05/19 07:23:44;;;;;;;3.58;1.58;;;14.40;99.90;;;;;;4979053;28;20046;-73
2023/05/19 07:26:09;;;;;;;3.67;1.52;;;14.50;99.90;;;;;;5011344;28;20215;-73
2023/05/19 07:28:35;;;;;;;4.88;2.00;;;14.60;17.40;;;;;;4978878;28;20436;-73
2023/05/19 07:31:01;;;;;;;2.20;1.50;;;14.70;43.40;;;;;;4995068;28;20042;-73
2023/05/19 07:33:27;;;;;;;3.90;1.70;;;14.80;99.90;;;;;;4978833;28;20093;-74
2023/05/19 07:35:52;;;;;;;4.03;1.85;;;14.90;99.90;;;;;;4979002;28;20073;-73
2023/05/19 07:38:18;;;;;;;4.25;1.83;;;14.90;99.90;;;;;;4994809;28;20068;-73
2023/05/19 07:40:44;;;;;;;3.22;1.58;;;15.10;99.90;;;;;;4978637;28;20137;-73
2023/05/19 07:43:10;;;;;;;3.83;1.50;;;15.20;99.90;;;;;;4994641;28;20054;-73
2023/05/19 07:45:36;;;;;;;3.63;1.25;;;15.30;99.90;;;;;;4994452;28;20065;-74
2023/05/19 07:48:02;;;;;;;4.82;1.50;;;15.40;99.60;;;;;;4978552;28;20058;-74
2023/05/19 07:50:28;;;;;;;4.00;1.63;;;15.50;99.90;;;;;;4978731;28;20133;-74
2023/05/19 07:52:55;;;;;;;4.25;1.58;;;15.60;99.90;;;;;;4994589;28;20042;-74
2023/05/19 07:55:22;;;;;;;5.07;1.70;;;15.70;39.10;;;;;;4994461;28;20132;-73
2023/05/19 07:57:49;;;;;;;4.70;1.73;;;15.70;1.00;;;;;;4994199;28;20408;-70
2023/05/19 08:00:16;;;;;;;2.22;1.30;;;15.90;1.00;;;;;;4978287;28;20512;-70
2023/05/19 08:02:42;;;;;;;5.18;1.83;;;16.20;38.40;;;;;;4994613;28;20038;-70
2023/05/19 08:05:09;;;;;;;3.42;1.40;;;16.50;1.00;;;;;;4994421;28;20386;-70
2023/05/19 08:07:35;;;;;;;2.38;1.10;;;16.70;99.90;;;;;;4994017;28;20058;-70
2023/05/19 08:10:01;;;;;;;2.47;1.20;;;17.10;99.90;;;;;;4994465;28;20100;-70
2023/05/19 08:12:27;;;;;;;5.10;1.98;;;17.40;1.00;;;;;;4993974;28;20057;-70
2023/05/19 08:14:52;;;;;;;4.22;1.90;;;17.20;99.90;;;;;;4994084;28;20049;-70
2023/05/19 08:17:18;;;;;;;5.00;1.60;;;17.00;99.90;;;;;;4994316;28;20050;-70
2023/05/19 08:19:44;;;;;;;3.72;1.30;;;17.00;99.90;;;;;;4994155;28;20054;-70
2023/05/19 08:22:10;;;;;;;2.70;1.40;;;17.00;99.90;;;;;;4993895;28;20045;-70
2023/05/19 08:24:35;;;;;;;3.40;1.50;;;17.10;99.90;;;;;;4977784;28;20111;-70
2023/05/19 08:27:03;;;;;;;3.38;1.33;;;17.20;99.90;;;;;;4993698;28;20042;-70
2023/05/19 08:29:29;;;;;;;3.40;1.35;;;17.30;99.90;;;;;;4994012;28;20053;-70
2023/05/19 08:31:57;;;;;;;2.80;1.38;;;17.50;99.90;;;;;;4993730;28;20030;-70
2023/05/19 08:34:22;;;;;;;3.72;1.60;;;17.60;99.90;;;;;;4993771;28;20492;-70
2023/05/19 08:36:48;;;;;;;;;;;17.70;99.90;;;;;;4993590;28;20050;-70
2023/05/19 08:39:17;;;;;;;3.22;1.60;;;17.50;99.90;;;;;;4993837;28;19964;-70
2023/05/19 08:41:43;;;;;;;1.90;1.30;;;17.60;99.90;;;;;;4977828;28;20061;-70
2023/05/19 08:44:08;;;;;;;;;;;17.80;99.90;;;;;;4990752;28;20068;-70
2023/05/19 08:46:34;;;;;;;4.88;1.80;;;17.80;99.90;;;;;;4990048;28;19925;-70
2023/05/19 08:49:13;;;;;;;4.72;1.38;;;17.80;99.90;;;;;;4990318;28;20046;-70
2023/05/19 08:51:49;;;;;;;3.15;1.55;;;17.80;99.90;;;;;;4990504;28;20084;-70
2023/05/19 08:54:16;;;;;;;4.15;1.70;;;17.90;99.90;;;;;;4974006;28;20129;-70
2023/05/19 08:56:46;;;;;;;5.93;1.85;;;17.80;99.90;;;;;;4990053;28;20054;-70
2023/05/19 08:59:13;;;;;;;6.28;2.22;;;17.80;99.90;;;;;;4989769;28;20038;-70
2023/05/19 09:01:43;;;;;;;5.25;2.47;;;18.00;99.90;;;;;;4991311;28;20100;-70
2023/05/19 09:04:09;;;;;;;3.72;1.83;;;18.00;99.90;;;;;;4990523;28;20363;-71
2023/05/19 09:06:34;;;;;;;;;;;18.00;99.90;;;;;;4990105;28;20057;-69
2023/05/19 09:09:00;;;;;;;3.72;1.60;;;18.00;99.90;;;;;;4989632;28;19926;-69
2023/05/19 09:11:26;;;;;;;;;;;18.10;99.90;;;;;;4974407;28;20050;-69
2023/05/19 09:13:52;;;;;;;3.22;1.40;;;18.40;99.90;;;;;;5022671;28;19918;-70
2023/05/19 09:16:18;;;;;;;3.75;1.63;;;18.50;99.90;;;;;;4990083;28;20398;-70
2023/05/19 09:18:54;;;;;;;;;;;18.40;33.60;;;;;;4974429;28;20061;-70
2023/05/19 09:21:29;;;;;;;4.18;1.73;;;18.50;99.90;;;;;;4989689;28;19988;-70
2023/05/19 09:23:57;;;;;;;4.35;1.95;;;18.70;95.60;;;;;;4991131;28;20439;-70
2023/05/19 09:26:23;;;;;;;3.17;1.65;;;18.70;72.60;;;;;;4989514;28;20046;-70
2023/05/19 09:28:48;;;;;;;;;;;18.70;20.80;;;;;;5006830;28;20389;-70
2023/05/19 09:31:15;;;;;;;5.40;1.75;;;18.80;64.30;;;;;;4989636;28;19922;-70
2023/05/19 09:33:42;;;;;;;3.75;1.70;;;18.80;14.80;;;;;;4989752;28;20046;-70
2023/05/19 09:36:09;;;;;;;2.63;1.55;;;18.80;61.50;;;;;;4973509;28;20516;-70
2023/05/19 09:38:36;;;;;;;3.95;1.73;;;18.80;36.80;;;;;;4990749;28;20074;-71
2023/05/19 09:41:03;;;;;;;4.85;1.80;;;18.80;37.80;;;;;;5005009;28;20038;-71
2023/05/19 09:43:32;;;;;;;2.35;1.30;;;18.80;28.70;;;;;;4990462;28;20125;-71
2023/05/19 09:46:04;;;;;;;3.33;1.50;;;19.00;13.60;;;;;;5003995;28;20152;-70
2023/05/19 09:48:30;;;;;;;2.40;1.30;;;19.00;6.20;;;;;;4989258;28;20128;-70
2023/05/19 09:50:56;;;;;;;;;;;19.00;1.00;;;;;;5004582;28;20226;-70
2023/05/19 09:53:24;;;;;;;5.05;1.60;;;19.20;49.60;;;;;;5005839;28;19917;-70
2023/05/19 09:55:55;;;;;;;3.65;1.42;;;19.50;23.90;;;;;;4989613;28;20052;-70
2023/05/19 09:58:21;;;;;;;3.80;1.58;;;19.50;1.00;;;;;;4989554;28;20050;-70
2023/05/19 10:00:47;;;;;;;5.25;1.70;;;19.40;12.30;;;;;;4989410;28;20050;-70
2023/05/19 10:03:13;;;;;;;;;;;19.40;1.00;;;;;;4989709;28;20474;-71
2023/05/19 10:05:40;;;;;;;4.43;1.40;;;19.40;1.00;;;;;;4989292;28;20001;-70
2023/05/19 10:08:09;;;;;;;2.60;1.30;;;19.40;1.00;;;;;;4989159;28;20046;-70
2023/05/19 10:10:37;;;;;;;4.65;1.27;;;19.70;1.00;;;;;;4992208;28;20053;-70
2023/05/19 10:13:03;;;;;;;3.30;1.40;;;19.60;1.00;;;;;;4993081;28;20069;-70
2023/05/19 10:15:29;;;;;;;2.67;1.35;;;19.40;1.00;;;;;;4994781;28;20073;-70
2023/05/19 10:17:55;;;;;;;2.65;1.30;;;19.50;1.00;;;;;;4993211;28;20194;-71
2023/05/19 10:20:21;;;;;;;3.13;1.30;;;19.60;1.00;;;;;;4994747;28;20116;-70
2023/05/19 10:22:47;;;;;;;;;;;19.40;1.00;;;;;;4994784;28;20074;-70
2023/05/19 10:25:15;;;;;;;3.50;1.60;;;19.60;1.00;;;;;;4993222;28;19956;-70
2023/05/19 10:28:03;;;;;;;2.03;1.20;;;19.60;1.00;;;;;;4992760;28;20396;-70
2023/05/19 10:30:34;;;;;;;2.83;1.50;;;19.90;1.00;;;;;;4992925;28;20045;-70
2023/05/19 10:33:02;;;;;;;2.80;1.20;;;19.60;1.00;;;;;;4993105;28;20046;-71
2023/05/19 10:35:43;;;;;;;3.22;1.33;;;19.70;1.00;;;;;;4993028;28;20034;-70
2023/05/19 10:38:15;;;;;;;2.97;1.23;;;19.70;1.00;;;;;;4992682;28;20054;-70
2023/05/19 10:41:01;;;;;;;2.08;1.20;;;19.70;1.00;;;;;;4992722;28;20039;-71
2023/05/19 10:43:45;;;;;;;3.65;1.30;;;20.10;1.00;;;;;;5008912;28;20050;-70
2023/05/19 10:46:11;;;;;;;2.17;1.10;;;20.20;1.00;;;;;;5012850;28;20062;-70
2023/05/19 10:48:36;;;;;;;;;;;20.00;1.00;;;;;;4963925;28;20136;-71
2023/05/19 10:51:03;;;;;;;1.85;1.05;;;20.20;1.00;;;;;;5013587;28;19918;-71
2023/05/19 10:53:33;;;;;;;3.42;1.20;;;20.20;1.00;;;;;;4995910;28;20053;-70
2023/05/19 10:56:05;;;;;;;3.70;1.25;;;20.20;1.00;;;;;;5013271;28;20052;-71
2023/05/19 10:58:43;;;;;;;4.32;1.50;;;20.10;1.00;;;;;;5013452;28;20050;-70
2023/05/19 11:01:13;;;;;;;3.33;1.20;;;20.20;1.00;;;;;;4995622;28;20046;-70
2023/05/19 11:03:52;;;;;;;4.05;1.20;;;20.40;1.00;;;;;;4995762;28;20388;-69
2023/05/19 11:06:31;;;;;;;3.55;1.63;;;20.60;1.00;;;;;;4995490;28;20053;-69
2023/05/19 11:08:59;;;;;;;2.70;1.20;;;20.60;1.00;;;;;;4979488;28;20054;-70
2023/05/19 11:11:27;;;;;;;2.58;1.00;;;20.80;1.00;;;;;;4995152;28;20151;-70
2023/05/19 11:13:54;;;;;;;3.13;1.40;;;20.90;1.00;;;;;;5013026;28;20045;-70
2023/05/19 11:16:31;;;;;;;4.93;1.60;;;20.90;1.00;;;;;;5013361;28;20592;-70
2023/05/19 11:19:00;;;;;;;3.40;1.20;;;20.80;1.00;;;;;;5012930;28;20569;-70
2023/05/19 11:21:53;;;;;;;3.92;1.67;;;21.00;1.00;;;;;;4994633;28;20050;-70
2023/05/19 11:24:46;;;;;;;2.70;1.10;;;20.60;1.00;;;;;;4995193;28;20050;-70
2023/05/19 11:27:25;;;;;;;5.38;1.70;;;20.70;1.00;;;;;;4994970;28;20050;-70
2023/05/19 11:29:51;;;;;;;2.70;1.55;;;20.50;99.90;;;;;;4994935;28;20433;-69
2023/05/19 11:32:19;;;;;;;2.78;1.20;;;20.30;1.00;;;;;;4978750;28;20042;-70
2023/05/19 11:34:47;;;;;;;3.53;1.23;;;20.30;1.00;;;;;;4994817;28;20049;-69
2023/05/19 11:37:12;;;;;;;3.00;1.20;;;20.40;1.00;;;;;;5012106;28;20563;-70
2023/05/19 11:39:39;;;;;;;2.28;1.00;;;20.80;1.00;;;;;;4994682;28;20049;-70
2023/05/19 11:42:04;;;;;;;3.25;1.20;;;21.30;1.00;;;;;;4994708;28;20078;-69
2023/05/19 11:44:31;;;;;;;1.95;0.93;;;21.60;1.00;;;;;;4994728;28;20132;-69
2023/05/19 11:46:59;;;;;;;3.47;1.20;;;22.00;1.00;;;;;;4994537;28;20058;-70
2023/05/19 11:49:26;;;;;;;5.22;1.40;;;22.00;1.00;;;;;;5010897;28;20117;-70
2023/05/19 11:51:53;;;;;;;1.70;1.15;;;22.10;1.00;;;;;;4978546;28;20041;-70
2023/05/19 11:54:18;;;;;;;4.68;1.50;;;22.40;1.00;;;;;;4994438;28;20080;-70
2023/05/19 11:56:44;;;;;;;3.72;1.50;;;22.40;1.00;;;;;;4978505;28;20132;-70
2023/05/19 11:59:10;;;;;;;2.17;1.27;;;22.60;1.00;;;;;;4978323;28;20453;-70
2023/05/19 12:01:36;;;;;;;4.32;1.88;;;22.30;1.00;;;;;;4978322;28;20042;-73
2023/05/19 12:04:07;;;;;;;4.53;1.20;;;21.70;99.90;;;;;;5010923;28;20670;-74
2023/05/19 12:06:33;;;;;;;3.47;1.40;;;21.30;1.00;;;;;;4962639;28;20050;-73
2023/05/19 12:08:59;;;;;;;3.35;1.33;;;21.00;1.00;;;;;;4994589;28;20073;-74
2023/05/19 12:11:27;;;;;;;4.18;1.45;;;21.00;1.00;;;;;;4977948;28;20048;-75
2023/05/19 12:13:57;;;;;;;3.25;1.33;;;21.10;1.00;;;;;;4994302;28;20165;-74
2023/05/19 12:16:31;;;;;;;3.13;1.27;;;21.50;1.00;;;;;;4977821;28;20475;-73
2023/05/19 12:18:56;;;;;;;3.55;1.10;;;21.60;1.00;;;;;;5011888;28;20046;-72
2023/05/19 12:21:22;;;;;;;4.25;1.20;;;21.70;1.00;;;;;;5011732;28;20057;-73
2023/05/19 12:23:48;;;;;;;;;;;21.80;1.00;;;;;;5011095;28;20112;-73
2023/05/19 12:26:14;;;;;;;4.75;1.48;;;21.60;99.90;;;;;;4994290;28;20364;-73
2023/05/19 12:28:40;;;;;;;3.00;1.27;;;21.70;1.00;;;;;;4993842;28;20050;-73
2023/05/19 12:31:06;;;;;;;3.47;1.20;;;21.70;1.00;;;;;;4977535;28;20058;-73
2023/05/19 12:33:33;;;;;;;3.97;1.33;;;22.10;1.00;;;;;;4993529;28;20107;-73
2023/05/19 12:35:59;;;;;;;3.03;1.20;;;22.30;99.90;;;;;;4993862;28;20050;-73
2023/05/19 12:38:25;;;;;;;2.50;1.10;;;22.30;99.90;;;;;;4993586;28;20053;-74
2023/05/19 12:40:51;;;;;;;3.78;1.13;;;22.40;99.90;;;;;;4993735;28;20050;-73
2023/05/19 12:43:21;;;;;;;3.25;1.45;;;22.30;99.90;;;;;;4977571;28;20104;-73
2023/05/19 12:45:47;;;;;;;3.67;1.33;;;22.20;99.90;;;;;;5011145;28;20124;-73
2023/05/19 12:48:16;;;;;;;3.95;1.50;;;21.90;99.90;;;;;;4993562;28;20056;-73
2023/05/19 12:50:46;;;;;;;2.72;1.10;;;21.70;99.90;;;;;;4993749;28;20046;-73
2023/05/19 12:53:12;;;;;;;2.45;1.05;;;21.60;99.90;;;;;;4993562;28;20073;-73
2023/05/19 12:55:43;;;;;;;1.55;0.85;;;21.80;99.90;;;;;;4993462;28;20442;-73
2023/05/19 12:58:14;;;;;;;2.10;1.00;;;22.00;99.90;;;;;;4993208;28;20098;-74
2023/05/19 13:00:45;;;;;;;3.38;1.30;;;22.10;99.90;;;;;;4993468;28;20041;-73